EST,Max TemperatureF,Mean TemperatureF,Min TemperatureF,Max Dew PointF,MeanDew PointF,Min DewpointF,Max Humidity, Mean Humidity, Min Humidity, Max Sea Level PressureIn, Mean Sea Level PressureIn, Min Sea Level PressureIn, Max VisibilityMiles, Mean VisibilityMiles, Min VisibilityMiles, Max Wind SpeedMPH, Mean Wind SpeedMPH, Max Gust SpeedMPH,PrecipitationIn, CloudCover, Events, WindDirDegrees
2014-2-1,63,52,41,44,27,18,66,44,21,30.07,29.99,29.90,10,10,10,26,13,32,T,6,Rain,170
2014-2-2,54,42,30,46,35,28,96,84,71,30.17,30.07,29.91,10,4,1,18,11,23,1.02,8,Rain-Snow,358
2014-2-3,31,25,19,28,25,17,96,87,78,30.35,30.20,30.05,8,4,1,17,7,21,0.30,6,Snow,10
2014-2-4,34,27,20,32,26,17,92,88,84,30.34,30.14,29.86,7,3,2,24,11,31,1.23,7,Rain,56
2014-2-5,35,29,23,33,26,20,96,89,81,30.39,30.04,29.70,10,5,1,24,12,32,0.27,8,Rain-Snow,272
2014-2-6,27,23,18,21,19,15,96,82,68,30.48,30.40,30.35,10,6,2,10,5,13,T,8,Snow,315
2014-2-7,22,17,11,14,10,6,84,73,62,30.51,30.43,30.36,10,8,2,12,5,13,T,6,Snow,329
2014-2-8,31,25,18,28,21,12,92,82,71,30.37,30.25,30.14,10,6,1,10,4,12,0.03,8,Snow,72
2014-2-9,32,29,25,30,27,22,100,86,72,30.25,30.13,30.06,10,5,1,17,6,21,0.09,8,Snow,265
2014-2-10,25,17,9,22,13,5,88,75,62,30.40,30.30,30.20,10,8,2,14,6,22,0.01,4,Snow,346
2014-2-11,22,13,4,10,5,0,88,73,57,30.48,30.43,30.38,10,8,5,13,8,16,0.00,0,,35
2014-2-12,30,20,9,18,11,4,76,67,58,30.38,30.18,29.99,10,10,8,12,8,14,0.00,0,,44
2014-2-13,41,30,18,20,16,12,77,59,40,29.96,29.84,29.72,10,10,8,14,7,22,0.00,3,,294
2014-2-14,43,36,28,36,29,20,92,72,52,29.80,29.69,29.61,10,6,1,23,9,29,0.44,6,Rain-Snow,295
2014-2-15,29,25,20,24,18,15,85,74,63,30.16,29.99,29.74,10,7,2,23,10,30,T,7,Snow,294
2014-2-16,37,32,26,27,24,20,85,77,69,30.28,30.12,30.01,10,8,1,16,9,20,0.03,7,Snow,245
2014-2-17,50,37,23,45,32,17,93,78,62,30.29,30.02,29.73,10,8,2,30,13,41,0.37,5,Rain,175
2014-2-18,57,46,34,34,30,26,89,62,35,30.18,30.05,29.86,10,10,7,18,11,23,0.00,0,,197
2014-2-19,57,51,45,50,40,31,89,64,39,30.08,29.91,29.78,10,9,5,23,11,30,0.10,3,Rain-Thunderstorm,239
2014-2-20,70,58,45,58,49,30,84,67,50,30.01,29.78,29.58,10,9,4,32,18,45,0.43,5,Rain-Thunderstorm,175
2014-2-21,60,49,37,56,31,12,86,55,24,30.04,29.85,29.60,10,9,2,36,15,46,0.30,4,Rain-Thunderstorm,239
2014-2-22,62,48,34,25,22,18,52,37,21,30.13,30.03,29.96,10,10,10,20,10,24,0.00,0,,203
2014-2-23,51,39,27,36,30,19,89,61,32,30.21,30.08,29.96,10,9,2,20,10,25,0.09,4,Rain-Snow,4
2014-2-24,39,31,22,17,14,12,77,56,34,30.34,30.26,30.20,10,10,10,16,6,20,0.00,1,,311
2014-2-25,40,33,26,22,17,14,69,57,44,30.22,30.16,30.10,10,10,5,15,7,18,T,6,Snow,329
2014-2-26,27,22,17,22,12,2,88,63,37,30.20,30.08,29.96,10,7,2,20,9,25,0.02,5,Snow,299
2014-2-27,35,26,16,11,5,-3,62,43,24,30.16,30.00,29.89,10,10,10,23,11,29,0.00,0,,284
2014-2-28,43,29,14,13,7,3,67,44,20,30.25,30.16,30.09,10,10,10,14,8,17,0.00,1,,89